sensor_id;sensor_type;location;lat;lon;timestamp;temperature;humidity
44170;DHT22;29836;52.286;9.576;2023-06-04T00:01:26;8.50;79.60
44170;DHT22;29836;52.286;9.576;2023-06-04T00:03:51;8.50;79.60
44170;DHT22;29836;52.286;9.576;2023-06-04T00:06:18;8.50;80.00
44170;DHT22;29836;52.286;9.576;2023-06-04T00:08:43;8.50;79.40
44170;DHT22;29836;52.286;9.576;2023-06-04T00:11:09;8.40;79.60
44170;DHT22;29836;52.286;9.576;2023-06-04T00:13:34;8.40;81.20
44170;DHT22;29836;52.286;9.576;2023-06-04T00:16:00;8.40;80.70
44170;DHT22;29836;52.286;9.576;2023-06-04T00:18:25;8.30;80.90
44170;DHT22;29836;52.286;9.576;2023-06-04T00:20:51;8.40;80.80
44170;DHT22;29836;52.286;9.576;2023-06-04T00:23:16;8.50;79.60
44170;DHT22;29836;52.286;9.576;2023-06-04T00:25:42;8.50;78.90
44170;DHT22;29836;52.286;9.576;2023-06-04T00:28:07;8.60;78.50
44170;DHT22;29836;52.286;9.576;2023-06-04T00:30:33;8.70;77.80
44170;DHT22;29836;52.286;9.576;2023-06-04T00:32:59;8.60;78.40
44170;DHT22;29836;52.286;9.576;2023-06-04T00:35:24;8.70;77.80
44170;DHT22;29836;52.286;9.576;2023-06-04T00:37:50;8.70;79.70
44170;DHT22;29836;52.286;9.576;2023-06-04T00:40:15;8.60;79.10
44170;DHT22;29836;52.286;9.576;2023-06-04T00:42:41;8.60;79.30
44170;DHT22;29836;52.286;9.576;2023-06-04T00:45:07;8.60;79.60
44170;DHT22;29836;52.286;9.576;2023-06-04T00:47:34;8.50;79.60
44170;DHT22;29836;52.286;9.576;2023-06-04T00:50:00;8.60;78.80
44170;DHT22;29836;52.286;9.576;2023-06-04T00:52:26;8.60;79.30
44170;DHT22;29836;52.286;9.576;2023-06-04T00:54:52;8.60;79.40
44170;DHT22;29836;52.286;9.576;2023-06-04T00:57:20;8.60;79.10
44170;DHT22;29836;52.286;9.576;2023-06-04T00:59:46;8.50;79.00
44170;DHT22;29836;52.286;9.576;2023-06-04T01:02:15;8.60;78.80
44170;DHT22;29836;52.286;9.576;2023-06-04T01:07:39;8.70;78.70
44170;DHT22;29836;52.286;9.576;2023-06-04T01:10:06;8.70;78.70
44170;DHT22;29836;52.286;9.576;2023-06-04T01:12:33;8.70;79.70
44170;DHT22;29836;52.286;9.576;2023-06-04T01:14:58;8.60;79.60
44170;DHT22;29836;52.286;9.576;2023-06-04T01:17:40;8.60;79.80
44170;DHT22;29836;52.286;9.576;2023-06-04T01:20:25;8.60;80.60
44170;DHT22;29836;52.286;9.576;2023-06-04T01:25:36;8.50;81.70
44170;DHT22;29836;52.286;9.576;2023-06-04T01:28:05;8.40;82.40
44170;DHT22;29836;52.286;9.576;2023-06-04T01:30:33;8.30;82.70
44170;DHT22;29836;52.286;9.576;2023-06-04T01:33:02;8.30;83.10
44170;DHT22;29836;52.286;9.576;2023-06-04T01:35:29;8.20;83.90
44170;DHT22;29836;52.286;9.576;2023-06-04T01:37:56;8.20;82.70
44170;DHT22;29836;52.286;9.576;2023-06-04T01:40:22;8.20;83.10
44170;DHT22;29836;52.286;9.576;2023-06-04T01:42:48;8.20;83.50
44170;DHT22;29836;52.286;9.576;2023-06-04T01:45:14;8.10;83.40
44170;DHT22;29836;52.286;9.576;2023-06-04T01:47:39;8.20;84.50
44170;DHT22;29836;52.286;9.576;2023-06-04T01:50:06;8.10;84.20
44170;DHT22;29836;52.286;9.576;2023-06-04T01:52:35;8.10;84.20
44170;DHT22;29836;52.286;9.576;2023-06-04T01:55:02;8.00;84.40
44170;DHT22;29836;52.286;9.576;2023-06-04T01:57:28;8.10;85.70
44170;DHT22;29836;52.286;9.576;2023-06-04T01:59:53;8.10;85.20
44170;DHT22;29836;52.286;9.576;2023-06-04T02:02:19;8.10;85.60
44170;DHT22;29836;52.286;9.576;2023-06-04T02:04:44;8.00;85.90
44170;DHT22;29836;52.286;9.576;2023-06-04T02:07:12;8.00;86.20
44170;DHT22;29836;52.286;9.576;2023-06-04T02:09:43;7.90;86.80
44170;DHT22;29836;52.286;9.576;2023-06-04T02:12:08;7.90;87.20
44170;DHT22;29836;52.286;9.576;2023-06-04T02:14:34;7.80;87.80
44170;DHT22;29836;52.286;9.576;2023-06-04T02:16:59;7.80;87.70
44170;DHT22;29836;52.286;9.576;2023-06-04T02:19:25;7.80;88.30
44170;DHT22;29836;52.286;9.576;2023-06-04T02:21:51;7.70;88.60
44170;DHT22;29836;52.286;9.576;2023-06-04T02:24:17;7.70;89.50
44170;DHT22;29836;52.286;9.576;2023-06-04T02:26:42;7.60;89.60
44170;DHT22;29836;52.286;9.576;2023-06-04T02:29:08;7.60;89.00
44170;DHT22;29836;52.286;9.576;2023-06-04T02:31:33;7.50;89.10
44170;DHT22;29836;52.286;9.576;2023-06-04T02:33:59;7.50;90.30
44170;DHT22;29836;52.286;9.576;2023-06-04T02:36:24;7.50;90.80
44170;DHT22;29836;52.286;9.576;2023-06-04T02:38:50;7.50;90.90
44170;DHT22;29836;52.286;9.576;2023-06-04T02:41:16;7.50;91.50
44170;DHT22;29836;52.286;9.576;2023-06-04T02:43:42;7.40;91.70
44170;DHT22;29836;52.286;9.576;2023-06-04T02:46:07;7.30;91.50
44170;DHT22;29836;52.286;9.576;2023-06-04T02:48:32;7.30;92.10
44170;DHT22;29836;52.286;9.576;2023-06-04T02:50:58;7.30;92.00
44170;DHT22;29836;52.286;9.576;2023-06-04T02:53:23;7.30;91.90
44170;DHT22;29836;52.286;9.576;2023-06-04T02:55:49;7.20;92.10
44170;DHT22;29836;52.286;9.576;2023-06-04T02:58:17;7.20;92.20
44170;DHT22;29836;52.286;9.576;2023-06-04T03:00:42;7.20;92.30
44170;DHT22;29836;52.286;9.576;2023-06-04T03:03:08;7.10;92.10
44170;DHT22;29836;52.286;9.576;2023-06-04T03:05:33;7.10;92.40
44170;DHT22;29836;52.286;9.576;2023-06-04T03:08:01;7.00;92.30
44170;DHT22;29836;52.286;9.576;2023-06-04T03:10:27;7.00;92.40
44170;DHT22;29836;52.286;9.576;2023-06-04T03:12:53;7.00;92.60
44170;DHT22;29836;52.286;9.576;2023-06-04T03:15:18;6.90;93.00
44170;DHT22;29836;52.286;9.576;2023-06-04T03:17:44;6.80;93.60
44170;DHT22;29836;52.286;9.576;2023-06-04T03:20:10;6.70;94.10
44170;DHT22;29836;52.286;9.576;2023-06-04T03:22:36;6.70;95.20
44170;DHT22;29836;52.286;9.576;2023-06-04T03:25:02;6.70;95.90
44170;DHT22;29836;52.286;9.576;2023-06-04T03:27:27;6.70;96.20
44170;DHT22;29836;52.286;9.576;2023-06-04T03:29:53;6.70;96.50
44170;DHT22;29836;52.286;9.576;2023-06-04T03:32:18;6.70;97.00
44170;DHT22;29836;52.286;9.576;2023-06-04T03:34:44;6.70;97.50
44170;DHT22;29836;52.286;9.576;2023-06-04T03:37:09;6.70;97.50
44170;DHT22;29836;52.286;9.576;2023-06-04T03:39:35;6.80;97.60
44170;DHT22;29836;52.286;9.576;2023-06-04T03:42:00;6.80;97.30
44170;DHT22;29836;52.286;9.576;2023-06-04T03:44:26;6.90;96.80
44170;DHT22;29836;52.286;9.576;2023-06-04T03:46:51;7.00;97.00
44170;DHT22;29836;52.286;9.576;2023-06-04T03:49:17;7.10;96.70
44170;DHT22;29836;52.286;9.576;2023-06-04T03:51:43;7.20;96.60
44170;DHT22;29836;52.286;9.576;2023-06-04T03:54:09;7.30;95.90
44170;DHT22;29836;52.286;9.576;2023-06-04T03:56:35;7.40;95.90
44170;DHT22;29836;52.286;9.576;2023-06-04T03:59:00;7.40;95.90
44170;DHT22;29836;52.286;9.576;2023-06-04T04:01:26;7.50;95.90
44170;DHT22;29836;52.286;9.576;2023-06-04T04:03:52;7.60;95.90
44170;DHT22;29836;52.286;9.576;2023-06-04T04:06:18;7.70;95.90
44170;DHT22;29836;52.286;9.576;2023-06-04T04:08:45;7.80;95.70
44170;DHT22;29836;52.286;9.576;2023-06-04T04:11:15;7.80;95.70
44170;DHT22;29836;52.286;9.576;2023-06-04T04:13:40;7.90;95.80
44170;DHT22;29836;52.286;9.576;2023-06-04T04:16:06;8.00;95.70
44170;DHT22;29836;52.286;9.576;2023-06-04T04:18:36;8.00;95.70
44170;DHT22;29836;52.286;9.576;2023-06-04T04:21:03;8.20;95.70
44170;DHT22;29836;52.286;9.576;2023-06-04T04:23:29;8.20;95.60
44170;DHT22;29836;52.286;9.576;2023-06-04T04:25:55;8.30;95.50
44170;DHT22;29836;52.286;9.576;2023-06-04T04:28:27;8.50;95.50
44170;DHT22;29836;52.286;9.576;2023-06-04T04:30:54;8.50;95.30
44170;DHT22;29836;52.286;9.576;2023-06-04T04:33:19;8.60;95.10
44170;DHT22;29836;52.286;9.576;2023-06-04T04:35:45;8.70;95.60
44170;DHT22;29836;52.286;9.576;2023-06-04T04:38:11;8.70;95.90
44170;DHT22;29836;52.286;9.576;2023-06-04T04:40:37;8.80;95.30
44170;DHT22;29836;52.286;9.576;2023-06-04T04:43:03;8.90;94.20
44170;DHT22;29836;52.286;9.576;2023-06-04T04:45:29;9.00;94.70
44170;DHT22;29836;52.286;9.576;2023-06-04T04:47:54;9.20;93.90
44170;DHT22;29836;52.286;9.576;2023-06-04T04:50:20;9.40;95.00
44170;DHT22;29836;52.286;9.576;2023-06-04T04:52:45;9.60;94.10
44170;DHT22;29836;52.286;9.576;2023-06-04T04:55:11;9.70;93.10
44170;DHT22;29836;52.286;9.576;2023-06-04T04:57:37;9.80;92.80
44170;DHT22;29836;52.286;9.576;2023-06-04T05:00:03;9.90;93.10
44170;DHT22;29836;52.286;9.576;2023-06-04T05:02:34;9.90;93.50
44170;DHT22;29836;52.286;9.576;2023-06-04T05:04:59;9.90;93.50
44170;DHT22;29836;52.286;9.576;2023-06-04T05:07:24;9.90;93.40
44170;DHT22;29836;52.286;9.576;2023-06-04T05:09:50;9.90;92.90
44170;DHT22;29836;52.286;9.576;2023-06-04T05:12:16;9.90;93.10
44170;DHT22;29836;52.286;9.576;2023-06-04T05:14:41;10.00;92.90
44170;DHT22;29836;52.286;9.576;2023-06-04T05:17:07;10.00;92.90
44170;DHT22;29836;52.286;9.576;2023-06-04T05:19:36;10.10;93.10
44170;DHT22;29836;52.286;9.576;2023-06-04T05:22:02;10.20;93.20
44170;DHT22;29836;52.286;9.576;2023-06-04T05:24:28;10.20;93.80
44170;DHT22;29836;52.286;9.576;2023-06-04T05:26:54;10.30;94.30
44170;DHT22;29836;52.286;9.576;2023-06-04T05:29:20;10.40;93.70
44170;DHT22;29836;52.286;9.576;2023-06-04T05:31:45;10.50;94.20
44170;DHT22;29836;52.286;9.576;2023-06-04T05:34:11;10.60;93.30
44170;DHT22;29836;52.286;9.576;2023-06-04T05:36:40;10.60;94.30
44170;DHT22;29836;52.286;9.576;2023-06-04T05:39:06;10.70;94.40
44170;DHT22;29836;52.286;9.576;2023-06-04T05:41:31;10.80;94.50
44170;DHT22;29836;52.286;9.576;2023-06-04T05:43:57;10.90;95.00
44170;DHT22;29836;52.286;9.576;2023-06-04T05:46:23;10.90;95.30
44170;DHT22;29836;52.286;9.576;2023-06-04T05:48:48;11.00;95.20
44170;DHT22;29836;52.286;9.576;2023-06-04T05:51:14;11.00;95.30
44170;DHT22;29836;52.286;9.576;2023-06-04T05:53:39;11.10;96.30
44170;DHT22;29836;52.286;9.576;2023-06-04T05:56:05;11.20;96.70
44170;DHT22;29836;52.286;9.576;2023-06-04T05:58:33;11.20;96.60
44170;DHT22;29836;52.286;9.576;2023-06-04T06:00:58;11.30;96.70
44170;DHT22;29836;52.286;9.576;2023-06-04T06:03:24;11.40;97.10
44170;DHT22;29836;52.286;9.576;2023-06-04T06:05:49;11.60;97.40
44170;DHT22;29836;52.286;9.576;2023-06-04T06:08:15;11.80;98.30
44170;DHT22;29836;52.286;9.576;2023-06-04T06:10:40;11.80;98.00
44170;DHT22;29836;52.286;9.576;2023-06-04T06:13:06;11.90;97.90
44170;DHT22;29836;52.286;9.576;2023-06-04T06:15:31;11.90;98.50
44170;DHT22;29836;52.286;9.576;2023-06-04T06:17:58;11.90;98.40
44170;DHT22;29836;52.286;9.576;2023-06-04T06:20:23;12.00;97.70
44170;DHT22;29836;52.286;9.576;2023-06-04T06:22:49;12.00;97.40
44170;DHT22;29836;52.286;9.576;2023-06-04T06:25:14;12.10;97.50
44170;DHT22;29836;52.286;9.576;2023-06-04T06:27:41;12.10;96.90
44170;DHT22;29836;52.286;9.576;2023-06-04T06:30:08;12.10;96.90
44170;DHT22;29836;52.286;9.576;2023-06-04T06:32:34;12.20;97.70
44170;DHT22;29836;52.286;9.576;2023-06-04T06:35:00;12.30;98.00
44170;DHT22;29836;52.286;9.576;2023-06-04T06:37:26;12.40;96.00
44170;DHT22;29836;52.286;9.576;2023-06-04T06:39:51;12.50;94.30
44170;DHT22;29836;52.286;9.576;2023-06-04T06:42:17;12.70;95.10
44170;DHT22;29836;52.286;9.576;2023-06-04T06:44:44;12.70;93.20
44170;DHT22;29836;52.286;9.576;2023-06-04T06:47:10;12.90;92.40
44170;DHT22;29836;52.286;9.576;2023-06-04T06:49:41;13.10;93.00
44170;DHT22;29836;52.286;9.576;2023-06-04T06:52:07;13.30;93.80
44170;DHT22;29836;52.286;9.576;2023-06-04T06:54:32;13.50;94.30
44170;DHT22;29836;52.286;9.576;2023-06-04T06:56:58;13.60;93.70
44170;DHT22;29836;52.286;9.576;2023-06-04T06:59:24;13.80;93.30
44170;DHT22;29836;52.286;9.576;2023-06-04T07:01:49;13.90;94.20
44170;DHT22;29836;52.286;9.576;2023-06-04T07:04:15;14.00;94.00
44170;DHT22;29836;52.286;9.576;2023-06-04T07:06:41;14.30;93.20
44170;DHT22;29836;52.286;9.576;2023-06-04T07:09:06;14.80;93.10
44170;DHT22;29836;52.286;9.576;2023-06-04T07:11:32;15.30;90.00
44170;DHT22;29836;52.286;9.576;2023-06-04T07:13:58;15.80;87.30
44170;DHT22;29836;52.286;9.576;2023-06-04T07:16:23;16.00;86.80
44170;DHT22;29836;52.286;9.576;2023-06-04T07:18:49;16.20;85.10
44170;DHT22;29836;52.286;9.576;2023-06-04T07:21:15;15.90;85.70
44170;DHT22;29836;52.286;9.576;2023-06-04T07:23:41;15.70;85.60
44170;DHT22;29836;52.286;9.576;2023-06-04T07:26:06;15.60;84.20
44170;DHT22;29836;52.286;9.576;2023-06-04T07:28:32;15.60;85.30
44170;DHT22;29836;52.286;9.576;2023-06-04T07:30:57;15.60;84.50
44170;DHT22;29836;52.286;9.576;2023-06-04T07:33:24;15.60;83.90
44170;DHT22;29836;52.286;9.576;2023-06-04T07:35:49;15.70;85.40
44170;DHT22;29836;52.286;9.576;2023-06-04T07:38:15;15.90;84.20
44170;DHT22;29836;52.286;9.576;2023-06-04T07:40:41;16.00;85.80
44170;DHT22;29836;52.286;9.576;2023-06-04T07:43:06;16.10;85.20
44170;DHT22;29836;52.286;9.576;2023-06-04T07:45:32;16.20;86.70
44170;DHT22;29836;52.286;9.576;2023-06-04T07:47:57;16.40;86.30
44170;DHT22;29836;52.286;9.576;2023-06-04T07:50:24;16.60;86.20
44170;DHT22;29836;52.286;9.576;2023-06-04T07:52:49;16.60;86.80
44170;DHT22;29836;52.286;9.576;2023-06-04T07:55:15;16.70;86.90
44170;DHT22;29836;52.286;9.576;2023-06-04T07:57:40;16.90;87.40
44170;DHT22;29836;52.286;9.576;2023-06-04T08:00:07;17.10;88.00
44170;DHT22;29836;52.286;9.576;2023-06-04T08:02:33;17.20;86.90
44170;DHT22;29836;52.286;9.576;2023-06-04T08:04:59;17.30;85.30
44170;DHT22;29836;52.286;9.576;2023-06-04T08:07:25;17.40;84.70
44170;DHT22;29836;52.286;9.576;2023-06-04T08:09:51;17.40;84.70
44170;DHT22;29836;52.286;9.576;2023-06-04T08:12:17;17.50;84.50
44170;DHT22;29836;52.286;9.576;2023-06-04T08:14:47;17.70;84.00
44170;DHT22;29836;52.286;9.576;2023-06-04T08:17:23;17.90;83.30
44170;DHT22;29836;52.286;9.576;2023-06-04T08:19:49;18.10;84.90
44170;DHT22;29836;52.286;9.576;2023-06-04T08:22:15;18.20;82.70
44170;DHT22;29836;52.286;9.576;2023-06-04T08:24:41;18.40;80.10
44170;DHT22;29836;52.286;9.576;2023-06-04T08:27:06;18.40;73.90
44170;DHT22;29836;52.286;9.576;2023-06-04T08:29:34;18.30;73.40
44170;DHT22;29836;52.286;9.576;2023-06-04T08:32:01;18.40;74.10
44170;DHT22;29836;52.286;9.576;2023-06-04T08:34:26;18.40;75.20
44170;DHT22;29836;52.286;9.576;2023-06-04T08:36:52;18.60;74.50
44170;DHT22;29836;52.286;9.576;2023-06-04T08:39:17;18.70;72.70
44170;DHT22;29836;52.286;9.576;2023-06-04T08:41:49;19.00;72.10
44170;DHT22;29836;52.286;9.576;2023-06-04T08:44:16;19.30;69.70
44170;DHT22;29836;52.286;9.576;2023-06-04T08:46:43;19.50;72.80
44170;DHT22;29836;52.286;9.576;2023-06-04T08:49:12;19.70;73.00
44170;DHT22;29836;52.286;9.576;2023-06-04T08:51:38;20.00;71.00
44170;DHT22;29836;52.286;9.576;2023-06-04T08:54:05;20.40;65.30
44170;DHT22;29836;52.286;9.576;2023-06-04T08:56:31;20.50;65.70
44170;DHT22;29836;52.286;9.576;2023-06-04T08:59:01;20.40;62.60
44170;DHT22;29836;52.286;9.576;2023-06-04T09:01:27;20.30;62.90
44170;DHT22;29836;52.286;9.576;2023-06-04T09:03:53;20.20;61.20
44170;DHT22;29836;52.286;9.576;2023-06-04T09:06:18;20.30;63.40
44170;DHT22;29836;52.286;9.576;2023-06-04T09:08:44;20.50;64.20
44170;DHT22;29836;52.286;9.576;2023-06-04T09:11:11;20.70;63.90
44170;DHT22;29836;52.286;9.576;2023-06-04T09:13:39;21.00;65.20
44170;DHT22;29836;52.286;9.576;2023-06-04T09:16:05;21.20;63.90
44170;DHT22;29836;52.286;9.576;2023-06-04T09:18:32;21.60;62.60
44170;DHT22;29836;52.286;9.576;2023-06-04T09:21:05;22.60;66.20
44170;DHT22;29836;52.286;9.576;2023-06-04T09:23:34;24.10;63.00
44170;DHT22;29836;52.286;9.576;2023-06-04T09:26:07;25.40;55.70
44170;DHT22;29836;52.286;9.576;2023-06-04T09:28:33;26.60;54.90
44170;DHT22;29836;52.286;9.576;2023-06-04T09:30:59;27.80;46.90
44170;DHT22;29836;52.286;9.576;2023-06-04T09:33:24;29.00;48.60
44170;DHT22;29836;52.286;9.576;2023-06-04T09:35:58;29.30;44.30
44170;DHT22;29836;52.286;9.576;2023-06-04T09:38:34;29.70;46.80
44170;DHT22;29836;52.286;9.576;2023-06-04T09:40:59;30.40;43.30
44170;DHT22;29836;52.286;9.576;2023-06-04T09:43:26;30.70;45.20
44170;DHT22;29836;52.286;9.576;2023-06-04T09:45:51;31.40;46.70
44170;DHT22;29836;52.286;9.576;2023-06-04T09:48:21;32.30;42.00
44170;DHT22;29836;52.286;9.576;2023-06-04T09:50:47;31.80;40.90
44170;DHT22;29836;52.286;9.576;2023-06-04T09:53:18;31.30;40.70
44170;DHT22;29836;52.286;9.576;2023-06-04T09:55:56;32.10;40.80
44170;DHT22;29836;52.286;9.576;2023-06-04T09:58:25;31.40;40.40
44170;DHT22;29836;52.286;9.576;2023-06-04T10:00:53;31.10;45.90
44170;DHT22;29836;52.286;9.576;2023-06-04T10:03:20;31.50;45.90
44170;DHT22;29836;52.286;9.576;2023-06-04T10:05:49;32.40;39.30
44170;DHT22;29836;52.286;9.576;2023-06-04T10:08:17;32.60;41.40
44170;DHT22;29836;52.286;9.576;2023-06-04T10:10:43;32.60;42.20
44170;DHT22;29836;52.286;9.576;2023-06-04T10:13:19;32.40;38.80
44170;DHT22;29836;52.286;9.576;2023-06-04T10:15:46;31.70;40.40
44170;DHT22;29836;52.286;9.576;2023-06-04T10:18:13;31.60;42.70
44170;DHT22;29836;52.286;9.576;2023-06-04T10:20:41;31.90;43.80
44170;DHT22;29836;52.286;9.576;2023-06-04T10:23:06;32.30;42.50
44170;DHT22;29836;52.286;9.576;2023-06-04T10:25:34;32.70;38.20
44170;DHT22;29836;52.286;9.576;2023-06-04T10:28:01;33.40;41.10
44170;DHT22;29836;52.286;9.576;2023-06-04T10:30:27;33.40;39.10
44170;DHT22;29836;52.286;9.576;2023-06-04T10:32:53;33.90;40.40
44170;DHT22;29836;52.286;9.576;2023-06-04T10:35:35;34.10;37.90
44170;DHT22;29836;52.286;9.576;2023-06-04T10:38:09;34.00;40.20
44170;DHT22;29836;52.286;9.576;2023-06-04T10:40:35;33.80;40.00
44170;DHT22;29836;52.286;9.576;2023-06-04T10:43:08;33.30;36.80
44170;DHT22;29836;52.286;9.576;2023-06-04T10:45:35;33.00;37.20
44170;DHT22;29836;52.286;9.576;2023-06-04T10:48:04;32.30;42.30
44170;DHT22;29836;52.286;9.576;2023-06-04T10:50:32;31.90;41.60
44170;DHT22;29836;52.286;9.576;2023-06-04T10:52:58;31.90;38.50
44170;DHT22;29836;52.286;9.576;2023-06-04T10:55:24;31.80;42.70
44170;DHT22;29836;52.286;9.576;2023-06-04T10:57:52;32.10;41.50
44170;DHT22;29836;52.286;9.576;2023-06-04T11:00:18;32.60;35.50
44170;DHT22;29836;52.286;9.576;2023-06-04T11:02:54;33.30;38.10
44170;DHT22;29836;52.286;9.576;2023-06-04T11:05:19;33.30;39.80
44170;DHT22;29836;52.286;9.576;2023-06-04T11:07:48;33.50;40.00
44170;DHT22;29836;52.286;9.576;2023-06-04T11:10:15;33.70;39.70
44170;DHT22;29836;52.286;9.576;2023-06-04T11:12:45;33.90;37.00
44170;DHT22;29836;52.286;9.576;2023-06-04T11:15:11;34.00;35.40
44170;DHT22;29836;52.286;9.576;2023-06-04T11:17:37;33.30;35.90
44170;DHT22;29836;52.286;9.576;2023-06-04T11:20:02;33.40;38.20
44170;DHT22;29836;52.286;9.576;2023-06-04T11:22:32;33.80;38.70
44170;DHT22;29836;52.286;9.576;2023-06-04T11:24:57;33.90;37.10
44170;DHT22;29836;52.286;9.576;2023-06-04T11:27:26;33.30;36.30
44170;DHT22;29836;52.286;9.576;2023-06-04T11:29:52;32.80;38.50
44170;DHT22;29836;52.286;9.576;2023-06-04T11:32:25;33.10;41.00
44170;DHT22;29836;52.286;9.576;2023-06-04T11:34:50;33.50;40.60
44170;DHT22;29836;52.286;9.576;2023-06-04T11:37:16;33.80;40.00
44170;DHT22;29836;52.286;9.576;2023-06-04T11:39:41;33.80;37.80
44170;DHT22;29836;52.286;9.576;2023-06-04T11:42:10;33.60;35.40
44170;DHT22;29836;52.286;9.576;2023-06-04T11:44:35;33.20;33.90
44170;DHT22;29836;52.286;9.576;2023-06-04T11:47:08;32.50;36.40
44170;DHT22;29836;52.286;9.576;2023-06-04T11:49:35;32.10;37.30
44170;DHT22;29836;52.286;9.576;2023-06-04T11:52:01;32.40;37.90
44170;DHT22;29836;52.286;9.576;2023-06-04T11:54:27;32.90;38.90
44170;DHT22;29836;52.286;9.576;2023-06-04T11:56:53;33.70;35.50
44170;DHT22;29836;52.286;9.576;2023-06-04T11:59:19;33.60;35.00
44170;DHT22;29836;52.286;9.576;2023-06-04T12:01:46;33.40;37.20
44170;DHT22;29836;52.286;9.576;2023-06-04T12:04:17;33.70;38.40
44170;DHT22;29836;52.286;9.576;2023-06-04T12:06:53;34.20;38.10
44170;DHT22;29836;52.286;9.576;2023-06-04T12:09:26;34.60;38.20
44170;DHT22;29836;52.286;9.576;2023-06-04T12:12:01;34.90;37.90
44170;DHT22;29836;52.286;9.576;2023-06-04T12:14:26;35.10;34.80
44170;DHT22;29836;52.286;9.576;2023-06-04T12:17:14;34.30;34.80
44170;DHT22;29836;52.286;9.576;2023-06-04T12:19:57;33.60;38.40
44170;DHT22;29836;52.286;9.576;2023-06-04T12:22:24;33.50;35.80
44170;DHT22;29836;52.286;9.576;2023-06-04T12:24:56;33.70;35.10
44170;DHT22;29836;52.286;9.576;2023-06-04T12:27:23;33.30;35.10
44170;DHT22;29836;52.286;9.576;2023-06-04T12:29:57;33.50;37.70
44170;DHT22;29836;52.286;9.576;2023-06-04T12:32:23;33.90;38.60
44170;DHT22;29836;52.286;9.576;2023-06-04T12:34:50;34.10;39.40
44170;DHT22;29836;52.286;9.576;2023-06-04T12:37:15;34.20;39.20
44170;DHT22;29836;52.286;9.576;2023-06-04T12:39:41;34.20;39.70
44170;DHT22;29836;52.286;9.576;2023-06-04T12:42:07;34.10;38.80
44170;DHT22;29836;52.286;9.576;2023-06-04T12:44:35;34.30;38.60
44170;DHT22;29836;52.286;9.576;2023-06-04T12:47:01;34.40;37.10
44170;DHT22;29836;52.286;9.576;2023-06-04T12:49:26;34.30;38.40
44170;DHT22;29836;52.286;9.576;2023-06-04T12:51:52;34.40;37.90
44170;DHT22;29836;52.286;9.576;2023-06-04T12:54:17;34.30;36.60
44170;DHT22;29836;52.286;9.576;2023-06-04T12:56:43;34.30;36.10
44170;DHT22;29836;52.286;9.576;2023-06-04T12:59:09;34.40;34.00
44170;DHT22;29836;52.286;9.576;2023-06-04T13:01:34;34.60;35.00
44170;DHT22;29836;52.286;9.576;2023-06-04T13:04:00;33.50;34.20
44170;DHT22;29836;52.286;9.576;2023-06-04T13:06:26;33.30;34.50
44170;DHT22;29836;52.286;9.576;2023-06-04T13:08:51;32.80;35.70
44170;DHT22;29836;52.286;9.576;2023-06-04T13:11:17;32.50;35.40
44170;DHT22;29836;52.286;9.576;2023-06-04T13:13:43;31.40;34.70
44170;DHT22;29836;52.286;9.576;2023-06-04T13:16:09;30.60;37.20
44170;DHT22;29836;52.286;9.576;2023-06-04T13:18:34;30.00;36.50
44170;DHT22;29836;52.286;9.576;2023-06-04T13:21:00;30.00;38.80
44170;DHT22;29836;52.286;9.576;2023-06-04T13:23:27;30.70;35.60
44170;DHT22;29836;52.286;9.576;2023-06-04T13:25:52;31.80;37.90
44170;DHT22;29836;52.286;9.576;2023-06-04T13:28:18;31.60;34.40
44170;DHT22;29836;52.286;9.576;2023-06-04T13:30:44;31.00;36.60
44170;DHT22;29836;52.286;9.576;2023-06-04T13:33:09;30.60;35.50
44170;DHT22;29836;52.286;9.576;2023-06-04T13:35:35;31.10;35.40
44170;DHT22;29836;52.286;9.576;2023-06-04T13:38:03;31.50;36.30
44170;DHT22;29836;52.286;9.576;2023-06-04T13:40:29;31.50;35.90
44170;DHT22;29836;52.286;9.576;2023-06-04T13:42:54;30.60;35.70
44170;DHT22;29836;52.286;9.576;2023-06-04T13:45:20;31.40;37.60
44170;DHT22;29836;52.286;9.576;2023-06-04T13:47:47;31.00;37.90
44170;DHT22;29836;52.286;9.576;2023-06-04T13:50:16;31.50;38.80
44170;DHT22;29836;52.286;9.576;2023-06-04T13:52:41;31.40;40.30
44170;DHT22;29836;52.286;9.576;2023-06-04T13:55:07;31.40;42.20
44170;DHT22;29836;52.286;9.576;2023-06-04T13:57:33;31.20;38.20
44170;DHT22;29836;52.286;9.576;2023-06-04T13:59:58;31.20;39.70
44170;DHT22;29836;52.286;9.576;2023-06-04T14:02:24;31.20;39.30
44170;DHT22;29836;52.286;9.576;2023-06-04T14:04:53;30.80;36.20
44170;DHT22;29836;52.286;9.576;2023-06-04T14:07:18;31.10;38.50
44170;DHT22;29836;52.286;9.576;2023-06-04T14:09:44;31.00;40.10
44170;DHT22;29836;52.286;9.576;2023-06-04T14:12:09;30.90;42.00
44170;DHT22;29836;52.286;9.576;2023-06-04T14:14:35;30.80;40.00
44170;DHT22;29836;52.286;9.576;2023-06-04T14:17:04;30.40;41.00
44170;DHT22;29836;52.286;9.576;2023-06-04T14:19:29;30.20;39.30
44170;DHT22;29836;52.286;9.576;2023-06-04T14:21:55;30.20;39.80
44170;DHT22;29836;52.286;9.576;2023-06-04T14:24:21;30.10;41.00
44170;DHT22;29836;52.286;9.576;2023-06-04T14:26:47;30.20;41.50
44170;DHT22;29836;52.286;9.576;2023-06-04T14:29:12;30.70;38.40
44170;DHT22;29836;52.286;9.576;2023-06-04T14:31:39;30.30;37.70
44170;DHT22;29836;52.286;9.576;2023-06-04T14:34:04;29.10;39.90
44170;DHT22;29836;52.286;9.576;2023-06-04T14:36:31;28.50;39.90
44170;DHT22;29836;52.286;9.576;2023-06-04T14:38:57;28.10;41.80
44170;DHT22;29836;52.286;9.576;2023-06-04T14:41:22;27.90;40.10
44170;DHT22;29836;52.286;9.576;2023-06-04T14:43:48;27.90;42.90
44170;DHT22;29836;52.286;9.576;2023-06-04T14:46:13;28.00;43.30
44170;DHT22;29836;52.286;9.576;2023-06-04T14:48:39;27.80;39.80
44170;DHT22;29836;52.286;9.576;2023-06-04T14:51:04;28.10;43.00
44170;DHT22;29836;52.286;9.576;2023-06-04T14:53:30;28.30;38.40
44170;DHT22;29836;52.286;9.576;2023-06-04T14:55:55;28.30;39.30
44170;DHT22;29836;52.286;9.576;2023-06-04T14:58:21;28.70;38.70
44170;DHT22;29836;52.286;9.576;2023-06-04T15:00:47;28.80;38.30
44170;DHT22;29836;52.286;9.576;2023-06-04T15:03:12;28.60;40.80
44170;DHT22;29836;52.286;9.576;2023-06-04T15:05:38;28.60;42.90
44170;DHT22;29836;52.286;9.576;2023-06-04T15:08:04;28.80;43.60
44170;DHT22;29836;52.286;9.576;2023-06-04T15:10:30;29.30;42.70
44170;DHT22;29836;52.286;9.576;2023-06-04T15:12:56;29.80;41.30
44170;DHT22;29836;52.286;9.576;2023-06-04T15:15:22;29.90;38.60
44170;DHT22;29836;52.286;9.576;2023-06-04T15:17:48;30.10;40.70
44170;DHT22;29836;52.286;9.576;2023-06-04T15:20:17;30.30;41.10
44170;DHT22;29836;52.286;9.576;2023-06-04T15:22:43;30.70;37.90
44170;DHT22;29836;52.286;9.576;2023-06-04T15:25:08;30.60;37.60
44170;DHT22;29836;52.286;9.576;2023-06-04T15:27:34;30.60;39.60
44170;DHT22;29836;52.286;9.576;2023-06-04T15:30:00;30.80;38.90
44170;DHT22;29836;52.286;9.576;2023-06-04T15:32:26;31.00;38.90
44170;DHT22;29836;52.286;9.576;2023-06-04T15:34:51;30.80;37.30
44170;DHT22;29836;52.286;9.576;2023-06-04T15:37:17;30.30;37.40